| time (UTC) | temp F | wind direction | speed MPH | gust MPH | rain 1hr in | rain 24hr in | rain mn in | humidity % | barometer mb |
| 20260905135024 | 70 | 300 | 22.0 | 47.0 | 0.00 | 0.17 | 0.02 | 57 | 1012.9 |
| 20260905134526 | 70 | 240 | 15.0 | 31.0 | 0.00 | 0.17 | 0.02 | 57 | 1012.9 |
| 20260905134024 | 70 | 261 | 12.0 | 32.0 | 0.00 | 0.17 | 0.02 | 59 | 1012.9 |
| 20260905133524 | 69 | 278 | 20.0 | 32.0 | 0.00 | 0.17 | 0.02 | 58 | 1012.9 |
| 20260905133024 | 70 | 303 | 14.0 | 38.0 | 0.00 | 0.17 | 0.02 | 58 | 1012.9 |
| 20260905132523 | 70 | 217 | 16.0 | 38.0 | 0.00 | 0.17 | 0.02 | 58 | 1013.0 |
| 20260905132022 | 69 | 236 | 17.0 | 30.0 | 0.00 | 0.17 | 0.02 | 57 | 1013.0 |
| 20260905131541 | 69 | 298 | 13.0 | 30.0 | 0.00 | 0.17 | 0.02 | 58 | 1013.1 |
| 20260905131121 | 69 | 259 | 17.0 | 40.0 | 0.00 | 0.17 | 0.02 | 58 | 1013.0 |
| 20260905130522 | 69 | 291 | 22.0 | 40.0 | 0.00 | 0.17 | 0.02 | 57 | 1013.0 |
| 20260905130128 | 69 | 259 | 17.0 | 39.0 | 0.00 | 0.17 | 0.02 | 57 | 1013.0 |
| 20260905125520 | 69 | 177 | 14.0 | 39.0 | 0.00 | 0.17 | 0.02 | 58 | 1013.0 |
| 20260905125021 | 68 | 248 | 13.0 | 39.0 | 0.00 | 0.17 | 0.02 | 58 | 1013.0 |
| 20260905124536 | 68 | 286 | 16.0 | 40.0 | 0.00 | 0.17 | 0.02 | 56 | 1013.1 |
| 20260905124020 | 69 | 289 | 21.0 | 46.0 | 0.00 | 0.17 | 0.02 | 54 | 1013.0 |
| 20260905123520 | 69 | 338 | 15.0 | 46.0 | 0.00 | 0.17 | 0.02 | 56 | 1013.0 |
| 20260905123020 | 69 | 273 | 10.0 | 34.0 | 0.00 | 0.17 | 0.02 | 58 | 1013.1 |
| 20260905122520 | 67 | 323 | 16.0 | 35.0 | 0.00 | 0.17 | 0.02 | 59 | 1013.2 |
| 20260905122020 | 67 | 303 | 17.0 | 37.0 | 0.00 | 0.17 | 0.02 | 58 | 1013.2 |
| 20260905121524 | 68 | 292 | 13.0 | 43.0 | 0.00 | 0.17 | 0.02 | 57 | 1013.2 |
| 20260905121021 | 69 | 225 | 17.0 | 37.0 | 0.00 | 0.17 | 0.02 | 56 | 1013.2 |
| 20260905120522 | 68 | 284 | 16.0 | 32.0 | 0.00 | 0.17 | 0.02 | 58 | 1013.2 |
| 20260905120019 | 67 | 298 | 14.0 | 42.0 | 0.00 | 0.17 | 0.02 | 59 | 1013.3 |
| 20260905115517 | 68 | 312 | 16.0 | 49.0 | 0.00 | 0.17 | 0.02 | 56 | 1013.3 |
| 20260905115020 | 69 | 215 | 16.0 | 49.0 | 0.00 | 0.17 | 0.02 | 56 | 1013.2 |
| 20260905114534 | 68 | 273 | 13.0 | 41.0 | 0.00 | 0.17 | 0.02 | 59 | 1013.2 |
| 20260905114016 | 68 | 261 | 15.0 | 41.0 | 0.00 | 0.17 | 0.02 | 59 | 1013.1 |
| 20260905113515 | 68 | 271 | 19.0 | 42.0 | 0.00 | 0.17 | 0.02 | 59 | 1013.2 |
| 20260905113014 | 69 | 297 | 17.0 | 35.0 | 0.00 | 0.17 | 0.02 | 58 | 1013.2 |
| 20260905112515 | 68 | 303 | 18.0 | 46.0 | 0.00 | 0.17 | 0.02 | 58 | 1013.2 |
| 20260905112016 | 68 | 244 | 18.0 | 46.0 | 0.00 | 0.17 | 0.02 | 57 | 1013.1 |
| 20260905111516 | 68 | 238 | 20.0 | 44.0 | 0.00 | 0.17 | 0.02 | 58 | 1013.1 |
| 20260905111013 | 68 | 315 | 22.0 | 50.0 | 0.00 | 0.17 | 0.02 | 57 | 1013.1 |
| 20260905110616 | 68 | 230 | 16.0 | 50.0 | 0.00 | 0.17 | 0.02 | 58 | 1013.0 |
| 20260905110012 | 68 | 288 | 23.0 | 50.0 | 0.00 | 0.17 | 0.02 | 60 | 1013.1 |
| 20260905105511 | 68 | 301 | 15.0 | 52.0 | 0.00 | 0.17 | 0.02 | 60 | 1013.1 |
| 20260905105011 | 67 | 239 | 22.0 | 52.0 | 0.00 | 0.17 | 0.02 | 61 | 1013.0 |
| 20260905104511 | 68 | 326 | 20.0 | 47.0 | 0.00 | 0.17 | 0.02 | 58 | 1013.1 |
| 20260905104010 | 67 | 275 | 23.0 | 47.0 | 0.00 | 0.17 | 0.02 | 58 | 1013.0 |
| 20260905103512 | 68 | 192 | 18.0 | 46.0 | 0.00 | 0.17 | 0.02 | 59 | 1013.0 |
| 20260905103023 | 67 | 300 | 25.0 | 46.0 | 0.00 | 0.17 | 0.02 | 59 | 1013.0 |
| 20260905102509 | 68 | 319 | 14.0 | 44.0 | 0.00 | 0.17 | 0.02 | 61 | 1012.9 |
| 20260905102008 | 67 | 303 | 19.0 | 42.0 | 0.00 | 0.17 | 0.02 | 62 | 1012.9 |
| 20260905101515 | 66 | 289 | 14.0 | 49.0 | 0.00 | 0.17 | 0.02 | 64 | 1013.0 |
| 20260905101006 | 67 | 296 | 27.0 | 49.0 | 0.00 | 0.17 | 0.02 | 63 | 1012.8 |
| 20260905100506 | 66 | 296 | 19.0 | 34.0 | 0.00 | 0.17 | 0.02 | 67 | 1012.8 |
| 20260905100006 | 66 | 236 | 17.0 | 35.0 | 0.00 | 0.17 | 0.02 | 66 | 1012.7 |
| 20260905095505 | 66 | 269 | 18.0 | 42.0 | 0.00 | 0.17 | 0.02 | 66 | 1012.7 |
| 20260905095004 | 66 | 251 | 18.0 | 43.0 | 0.00 | 0.17 | 0.02 | 66 | 1012.7 |
| 20260905094504 | 67 | 239 | 12.0 | 38.0 | 0.00 | 0.17 | 0.02 | 66 | 1012.7 |
| 20260905094004 | 68 | 265 | 15.0 | 34.0 | 0.00 | 0.17 | 0.02 | 66 | 1012.5 |
| 20260905093501 | 66 | 294 | 17.0 | 34.0 | 0.00 | 0.17 | 0.02 | 67 | 1012.5 |
| 20260905093102 | 67 | 245 | 15.0 | 34.0 | 0.00 | 0.17 | 0.02 | 68 | 1012.6 |
| 20260905092603 | 66 | 306 | 16.0 | 34.0 | 0.00 | 0.17 | 0.02 | 69 | 1012.6 |
| 20260905092058 | 66 | 275 | 14.0 | 41.0 | 0.00 | 0.17 | 0.02 | 69 | 1012.5 |
| 20260905091609 | 66 | 247 | 17.0 | 38.0 | 0.00 | 0.17 | 0.02 | 70 | 1012.6 |
| 20260905091056 | 65 | 351 | 16.0 | 43.0 | 0.00 | 0.17 | 0.02 | 71 | 1012.6 |
| 20260905090556 | 65 | 257 | 14.0 | 43.0 | 0.00 | 0.17 | 0.02 | 70 | 1012.4 |
| 20260905090155 | 65 | 205 | 14.0 | 33.0 | 0.00 | 0.17 | 0.02 | 71 | 1012.3 |
| 20260905085554 | 65 | 251 | 18.0 | 34.0 | 0.00 | 0.17 | 0.02 | 70 | 1012.4 |
| 20260905085052 | 64 | 277 | 8.0 | 33.0 | 0.00 | 0.17 | 0.02 | 74 | 1012.3 |
| 20260905084605 | 64 | 252 | 15.0 | 32.0 | 0.00 | 0.17 | 0.02 | 72 | 1012.3 |
| 20260905084050 | 64 | 272 | 17.0 | 42.0 | 0.00 | 0.17 | 0.02 | 71 | 1012.2 |
| 20260905083550 | 65 | 277 | 20.0 | 42.0 | 0.00 | 0.17 | 0.02 | 71 | 1012.2 |
| 20260905083049 | 65 | 283 | 11.0 | 37.0 | 0.00 | 0.17 | 0.02 | 73 | 1012.1 |
| 20260905082549 | 64 | 264 | 20.0 | 38.0 | 0.00 | 0.17 | 0.02 | 73 | 1012.1 |
| 20260905082048 | 64 | 293 | 18.0 | 38.0 | 0.00 | 0.17 | 0.02 | 74 | 1012.0 |
| 20260905081547 | 64 | 307 | 12.0 | 38.0 | 0.00 | 0.17 | 0.02 | 76 | 1012.0 |
| 20260905081046 | 63 | 281 | 17.0 | 38.0 | 0.00 | 0.17 | 0.02 | 76 | 1012.0 |
| 20260905080546 | 63 | 282 | 14.0 | 36.0 | 0.00 | 0.17 | 0.02 | 77 | 1012.0 |
| 20260905080045 | 63 | 267 | 12.0 | 32.0 | 0.00 | 0.17 | 0.02 | 78 | 1012.1 |
| 20260905075547 | 63 | 235 | 14.0 | 32.0 | 0.00 | 0.17 | 0.02 | 77 | 1012.1 |
| 20260905075043 | 64 | 263 | 17.0 | 31.0 | 0.00 | 0.17 | 0.02 | 77 | 1012.0 |
| 20260905074544 | 64 | 180 | 12.0 | 30.0 | 0.00 | 0.17 | 0.02 | 77 | 1011.9 |
| 20260905074044 | 64 | 244 | 12.0 | 29.0 | 0.00 | 0.17 | 0.02 | 78 | 1011.9 |
| 20260905073542 | 63 | 284 | 10.0 | 30.0 | 0.00 | 0.17 | 0.02 | 79 | 1011.7 |
| 20260905073042 | 64 | 300 | 18.0 | 29.0 | 0.00 | 0.17 | 0.02 | 78 | 1011.8 |
| 20260905072541 | 62 | 223 | 9.0 | 34.0 | 0.00 | 0.17 | 0.02 | 81 | 1011.8 |
| 20260905072040 | 62 | 253 | 14.0 | 30.0 | 0.00 | 0.17 | 0.02 | 80 | 1011.8 |
| 20260905071539 | 63 | 244 | 14.0 | 31.0 | 0.00 | 0.17 | 0.02 | 80 | 1011.7 |
| 20260905071037 | 63 | 213 | 16.0 | 32.0 | 0.00 | 0.17 | 0.02 | 80 | 1011.5 |
| 20260905070538 | 62 | 284 | 17.0 | 35.0 | 0.00 | 0.17 | 0.02 | 81 | 1011.6 |
| 20260905070036 | 62 | 203 | 18.0 | 41.0 | 0.00 | 0.17 | 0.02 | 81 | 1011.5 |
| 20260905065635 | 62 | 265 | 19.0 | 41.0 | 0.00 | 0.17 | 0.02 | 82 | 1011.5 |
| 20260905065136 | 62 | 256 | 15.0 | 37.0 | 0.00 | 0.17 | 0.02 | 82 | 1011.4 |
| 20260905064538 | 62 | 254 | 20.0 | 36.0 | 0.00 | 0.17 | 0.02 | 82 | 1011.2 |
| 20260905064035 | 62 | 281 | 7.0 | 36.0 | 0.00 | 0.17 | 0.02 | 83 | 1011.2 |
| 20260905063532 | 62 | 238 | 12.0 | 41.0 | 0.00 | 0.17 | 0.02 | 83 | 1011.1 |
| 20260905063032 | 61 | 302 | 20.0 | 41.0 | 0.00 | 0.17 | 0.02 | 83 | 1011.2 |
| 20260905062531 | 61 | 304 | 14.0 | 29.0 | 0.00 | 0.17 | 0.02 | 83 | 1011.1 |
| 20260905062032 | 61 | 288 | 15.0 | 29.0 | 0.00 | 0.17 | 0.02 | 84 | 1011.0 |
| 20260905061530 | 61 | 294 | 9.0 | 21.0 | 0.00 | 0.17 | 0.02 | 84 | 1011.0 |
| 20260905061030 | 61 | 281 | 11.0 | 37.0 | 0.00 | 0.17 | 0.02 | 84 | 1011.0 |
| 20260905060531 | 61 | 247 | 18.0 | 37.0 | 0.00 | 0.17 | 0.02 | 85 | 1011.0 |
| 20260905060032 | 61 | 293 | 7.0 | 27.0 | 0.00 | 0.17 | 0.02 | 85 | 1010.9 |
| 20260905055531 | 61 | 296 | 12.0 | 27.0 | 0.00 | 0.17 | 0.02 | 85 | 1010.8 |
| 20260905055026 | 61 | 257 | 9.0 | 25.0 | 0.00 | 0.17 | 0.02 | 86 | 1010.8 |
| 20260905054527 | 61 | 263 | 12.0 | 31.0 | 0.00 | 0.17 | 0.02 | 86 | 1010.7 |
| 20260905054025 | 61 | 219 | 6.0 | 29.0 | 0.00 | 0.17 | 0.02 | 87 | 1010.6 |
| 20260905053524 | 60 | 213 | 11.0 | 25.0 | 0.00 | 0.17 | 0.02 | 87 | 1010.6 |
| 20260905053024 | 61 | 217 | 12.0 | 34.0 | 0.00 | 0.17 | 0.02 | 87 | 1010.6 |
| 20260905052524 | 61 | 267 | 10.0 | 24.0 | 0.00 | 0.17 | 0.02 | 87 | 1010.7 |
| 20260905052022 | 61 | 276 | 6.0 | 25.0 | 0.00 | 0.17 | 0.02 | 87 | 1010.6 |
| 20260905051532 | 61 | 263 | 6.0 | 22.0 | 0.00 | 0.17 | 0.02 | 87 | 1010.4 |
| 20260905051019 | 61 | 254 | 9.0 | 22.0 | 0.00 | 0.17 | 0.02 | 87 | 1010.4 |
| 20260905050518 | 61 | 302 | 9.0 | 21.0 | 0.00 | 0.17 | 0.02 | 87 | 1010.3 |
| 20260905050017 | 61 | 286 | 10.0 | 21.0 | 0.00 | 0.17 | 0.02 | 87 | 1010.3 |
| 20260905045518 | 61 | 198 | 5.0 | 26.0 | 0.00 | 0.17 | 0.02 | 87 | 1010.2 |
| 20260905044515 | 61 | 255 | 14.0 | 23.0 | 0.00 | 0.17 | 0.02 | 87 | 1010.2 |
| 20260905044018 | 61 | 302 | 13.0 | 31.0 | 0.00 | 0.17 | 0.02 | 88 | 1010.0 |
| 20260905043513 | 61 | 254 | 9.0 | 31.0 | 0.00 | 0.17 | 0.02 | 88 | 1009.9 |
| 20260905043012 | 61 | 298 | 8.0 | 23.0 | 0.00 | 0.17 | 0.02 | 88 | 1009.8 |
| 20260905042511 | 61 | 290 | 12.0 | 23.0 | 0.00 | 0.17 | 0.02 | 88 | 1009.8 |
| 20260905042011 | 61 | 286 | 8.0 | 35.0 | 0.00 | 0.17 | 0.02 | 88 | 1009.8 |
| 20260905041512 | 61 | 276 | 14.0 | 35.0 | 0.00 | 0.17 | 0.02 | 88 | 1009.8 |
| 20260905041008 | 61 | 246 | 13.0 | 26.0 | 0.00 | 0.17 | 0.02 | 88 | 1009.8 |
| 20260905040507 | 61 | 241 | 10.0 | 32.0 | 0.00 | 0.17 | 0.02 | 88 | 1009.7 |
| 20260905040007 | 61 | 306 | 14.0 | 32.0 | 0.00 | 0.17 | 0.02 | 88 | 1009.5 |
| 20260905035507 | 61 | 305 | 12.0 | 24.0 | 0.00 | 0.17 | 0.02 | 88 | 1009.4 |
| 20260905035004 | 61 | 277 | 10.0 | 21.0 | 0.00 | 0.17 | 0.02 | 88 | 1009.5 |
| 20260905034505 | 61 | 296 | 11.0 | 20.0 | 0.00 | 0.17 | 0.02 | 88 | 1009.3 |
| 20260905034002 | 61 | 311 | 6.0 | 22.0 | 0.00 | 0.17 | 0.02 | 88 | 1009.1 |
| 20260905033502 | 61 | 221 | 10.0 | 27.0 | 0.00 | 0.17 | 0.02 | 88 | 1009.1 |
| 20260905033002 | 61 | 250 | 10.0 | 27.0 | 0.00 | 0.17 | 0.02 | 88 | 1009.1 |
| 20260905032502 | 61 | 254 | 8.0 | 25.0 | 0.00 | 0.17 | 0.02 | 88 | 1009.1 |
| 20260905032103 | 61 | 250 | 10.0 | 25.0 | 0.00 | 0.17 | 0.02 | 88 | 1009.2 |
| 20260905031601 | 61 | 305 | 11.0 | 34.0 | 0.00 | 0.17 | 0.02 | 88 | 1009.0 |
| 20260905031100 | 61 | 290 | 13.0 | 34.0 | 0.00 | 0.17 | 0.02 | 88 | 1008.9 |
| 20260905030557 | 61 | 269 | 13.0 | 29.0 | 0.00 | 0.17 | 0.02 | 89 | 1008.7 |
| 20260905030104 | 61 | 261 | 13.0 | 39.0 | 0.00 | 0.17 | 0.02 | 89 | 1008.5 |
| 20260905025557 | 61 | 261 | 11.0 | 39.0 | 0.00 | 0.17 | 0.02 | 89 | 1008.6 |
| 20260905025056 | 61 | 302 | 12.0 | 24.0 | 0.00 | 0.17 | 0.02 | 89 | 1008.5 |
| 20260905024057 | 61 | 259 | 9.0 | 25.0 | 0.00 | 0.17 | 0.02 | 89 | 1008.4 |
| 20260905023555 | 61 | 266 | 9.0 | 27.0 | 0.00 | 0.17 | 0.02 | 90 | 1008.4 |
| 20260905023057 | 61 | 275 | 12.0 | 27.0 | 0.00 | 0.17 | 0.02 | 90 | 1008.2 |
| 20260905022552 | 61 | 284 | 6.0 | 24.0 | 0.00 | 0.17 | 0.02 | 90 | 1008.2 |
| 20260905022052 | 61 | 271 | 12.0 | 25.0 | 0.00 | 0.17 | 0.02 | 91 | 1008.4 |
| 20260905021552 | 61 | 248 | 10.0 | 25.0 | 0.00 | 0.17 | 0.02 | 91 | 1008.3 |
| 20260905021051 | 61 | 236 | 9.0 | 29.0 | 0.00 | 0.17 | 0.02 | 91 | 1008.1 |
| 20260905020550 | 61 | 234 | 9.0 | 29.0 | 0.00 | 0.17 | 0.02 | 91 | 1008.1 |
| 20260905020052 | 61 | 266 | 7.0 | 28.0 | 0.00 | 0.17 | 0.02 | 91 | 1008.1 |
| 20260905015549 | 61 | 288 | 9.0 | 26.0 | 0.00 | 0.17 | 0.02 | 91 | 1008.1 |
| 20260905015048 | 61 | 294 | 12.0 | 26.0 | 0.00 | 0.17 | 0.02 | 91 | 1008.2 |
| 20260905014546 | 61 | 238 | 9.0 | 22.0 | 0.00 | 0.17 | 0.02 | 91 | 1008.2 |
| 20260905014049 | 61 | 207 | 12.0 | 27.0 | 0.00 | 0.17 | 0.02 | 92 | 1008.0 |
| 20260905013546 | 61 | 253 | 13.0 | 27.0 | 0.00 | 0.17 | 0.02 | 92 | 1007.9 |
| 20260905013050 | 61 | 254 | 10.0 | 27.0 | 0.00 | 0.17 | 0.02 | 92 | 1008.1 |
| 20260905012545 | 61 | 207 | 9.0 | 27.0 | 0.00 | 0.17 | 0.02 | 92 | 1007.9 |
| 20260905012045 | 61 | 222 | 7.0 | 28.0 | 0.00 | 0.17 | 0.02 | 92 | 1007.9 |
| 20260905011553 | 61 | 205 | 13.0 | 28.0 | 0.00 | 0.17 | 0.02 | 92 | 1008.0 |
| 20260905011048 | 61 | 284 | 10.0 | 26.0 | 0.00 | 0.17 | 0.02 | 92 | 1007.8 |
| 20260905010546 | 61 | 282 | 12.0 | 23.0 | 0.01 | 0.17 | 0.02 | 92 | 1007.9 |
| 20260905010044 | 61 | 321 | 9.0 | 29.0 | 0.01 | 0.17 | 0.02 | 92 | 1007.6 |
| 20260905005543 | 61 | 258 | 9.0 | 29.0 | 0.01 | 0.17 | 0.02 | 92 | 1007.4 |
| 20260905005041 | 61 | 300 | 9.0 | 25.0 | 0.01 | 0.17 | 0.02 | 91 | 1007.6 |
| 20260905004549 | 61 | 245 | 14.0 | 27.0 | 0.01 | 0.17 | 0.02 | 91 | 1007.9 |
| 20260905003538 | 61 | 265 | 9.0 | 32.0 | 0.01 | 0.17 | 0.02 | 91 | 1008.0 |
| 20260905003037 | 61 | 275 | 13.0 | 26.0 | 0.01 | 0.17 | 0.02 | 91 | 1007.9 |
| 20260905002536 | 61 | 269 | 14.0 | 25.0 | 0.01 | 0.17 | 0.02 | 91 | 1007.8 |
| 20260905002034 | 61 | 227 | 11.0 | 28.0 | 0.01 | 0.17 | 0.02 | 90 | 1007.3 |
| 20260905001533 | 61 | 238 | 14.0 | 28.0 | 0.01 | 0.17 | 0.02 | 90 | 1007.1 |
| 20260905001037 | 62 | 253 | 8.0 | 36.0 | 0.01 | 0.17 | 0.02 | 90 | 1006.8 |
| 20260905000532 | 62 | 281 | 12.0 | 36.0 | 0.00 | 0.16 | 0.01 | 89 | 1007.0 |
| 20260905000032 | 62 | 223 | 13.0 | 32.0 | 0.00 | 0.16 | 0.01 | 89 | 1006.7 |
| 20260904235531 | 62 | 220 | 11.0 | 28.0 | 0.00 | 0.16 | 0.01 | 89 | 1007.0 |
| 20260904235033 | 62 | 284 | 14.0 | 28.0 | 0.00 | 0.16 | 0.01 | 89 | 1007.0 |
| 20260904234539 | 62 | 252 | 12.0 | 30.0 | 0.00 | 0.16 | 0.01 | 89 | 1006.9 |
| 20260904234027 | 62 | 242 | 9.0 | 30.0 | 0.01 | 0.16 | 0.01 | 88 | 1006.6 |
| 20260904233527 | 62 | 343 | 13.0 | 30.0 | 0.01 | 0.16 | 0.01 | 88 | 1006.7 |
| 20260904233036 | 62 | 257 | 13.0 | 28.0 | 0.01 | 0.16 | 0.01 | 88 | 1006.7 |
| 20260904232526 | 62 | 247 | 11.0 | 29.0 | 0.01 | 0.16 | 0.01 | 88 | 1006.8 |
| 20260904232028 | 63 | 253 | 10.0 | 29.0 | 0.01 | 0.16 | 0.01 | 89 | 1006.6 |
| 20260904231523 | 63 | 299 | 12.0 | 27.0 | 0.01 | 0.16 | 0.01 | 89 | 1006.7 |
| 20260904231023 | 63 | 262 | 13.0 | 32.0 | 0.01 | 0.16 | 0.01 | 89 | 1006.5 |
| 20260904230522 | 63 | 234 | 16.0 | 32.0 | 0.01 | 0.16 | 0.01 | 89 | 1006.4 |
| 20260904230027 | 63 | 248 | 12.0 | 30.0 | 0.01 | 0.16 | 0.01 | 90 | 1006.3 |
| 20260904225525 | 64 | 265 | 10.0 | 27.0 | 0.01 | 0.16 | 0.01 | 90 | 1006.2 |
| 20260904225020 | 64 | 251 | 10.0 | 25.0 | 0.01 | 0.16 | 0.01 | 90 | 1006.0 |
| 20260904224526 | 64 | 280 | 8.0 | 26.0 | 0.01 | 0.16 | 0.01 | 90 | 1006.0 |
| 20260904224016 | 64 | 269 | 11.0 | 26.0 | 0.00 | 0.15 | 0.00 | 90 | 1005.7 |
| 20260904223515 | 64 | 231 | 11.0 | 27.0 | 0.00 | 0.15 | 0.00 | 91 | 1005.8 |
| 20260904223014 | 64 | 193 | 11.0 | 26.0 | 0.00 | 0.15 | 0.00 | 91 | 1005.9 |
| 20260904222511 | 65 | 299 | 9.0 | 26.0 | 0.00 | 0.15 | 0.00 | 92 | 1005.7 |
| 20260904222011 | 65 | 224 | 8.0 | 23.0 | 0.00 | 0.15 | 0.00 | 92 | 1005.5 |
| 20260904221509 | 65 | 248 | 11.0 | 30.0 | 0.00 | 0.15 | 0.00 | 92 | 1005.4 |
| 20260904221009 | 65 | 261 | 7.0 | 30.0 | 0.00 | 0.15 | 0.00 | 92 | 1004.9 |
| 20260904220508 | 65 | 236 | 10.0 | 23.0 | 0.00 | 0.15 | 0.00 | 93 | 1005.0 |
| 20260904220006 | 65 | 218 | 11.0 | 23.0 | 0.00 | 0.15 | 0.15 | 93 | 1005.1 |
| 20260904215507 | 65 | 257 | 8.0 | 24.0 | 0.00 | 0.15 | 0.15 | 93 | 1005.3 |
| 20260904215006 | 65 | 217 | 7.0 | 21.0 | 0.00 | 0.15 | 0.15 | 93 | 1005.4 |
| 20260904214510 | 64 | 221 | 5.0 | 18.0 | 0.00 | 0.15 | 0.15 | 93 | 1005.2 |
| 20260904214009 | 64 | 232 | 10.0 | 21.0 | 0.00 | 0.15 | 0.15 | 93 | 1005.3 |
| 20260904213606 | 64 | 223 | 8.0 | 23.0 | 0.00 | 0.15 | 0.15 | 93 | 1005.2 |
| 20260904213006 | 64 | 244 | 11.0 | 23.0 | 0.00 | 0.15 | 0.15 | 93 | 1004.9 |
| 20260904212504 | 64 | 196 | 4.0 | 22.0 | 0.00 | 0.15 | 0.15 | 93 | 1005.1 |
| 20260904212008 | 64 | 262 | 7.0 | 21.0 | 0.00 | 0.15 | 0.15 | 92 | 1005.3 |
| 20260904211503 | 64 | 221 | 9.0 | 22.0 | 0.00 | 0.15 | 0.15 | 92 | 1005.5 |
| 20260904211005 | 64 | 217 | 8.0 | 22.0 | 0.00 | 0.15 | 0.15 | 92 | 1005.6 |
| 20260904210504 | 64 | 220 | 6.0 | 12.0 | 0.00 | 0.15 | 0.15 | 92 | 1005.5 |
| 20260904210004 | 64 | 224 | 7.0 | 16.0 | 0.00 | 0.15 | 0.15 | 92 | 1005.6 |
| 20260904205503 | 64 | 238 | 6.0 | 13.0 | 0.00 | 0.15 | 0.15 | 92 | 1005.3 |
| 20260904205007 | 64 | 229 | 6.0 | 13.0 | 0.00 | 0.15 | 0.15 | 92 | 1005.2 |
| 20260904204502 | 64 | 225 | 3.0 | 15.0 | 0.00 | 0.15 | 0.15 | 92 | 1005.2 |
| 20260904204002 | 64 | 244 | 6.0 | 15.0 | 0.01 | 0.15 | 0.15 | 92 | 1005.1 |
| 20260904203502 | 64 | 251 | 5.0 | 19.0 | 0.01 | 0.15 | 0.15 | 91 | 1005.2 |
| 20260904203002 | 64 | 273 | 5.0 | 15.0 | 0.02 | 0.15 | 0.15 | 91 | 1005.2 |
| 20260904202502 | 64 | 236 | 4.0 | 21.0 | 0.04 | 0.15 | 0.15 | 92 | 1005.4 |
| 20260904202002 | 65 | 265 | 6.0 | 21.0 | 0.10 | 0.15 | 0.15 | 91 | 1005.4 |
| 20260904201501 | 65 | 310 | 8.0 | 21.0 | 0.13 | 0.15 | 0.15 | 91 | 1005.5 |
| 20260904201000 | 65 | 309 | 12.0 | 23.0 | 0.15 | 0.15 | 0.15 | 91 | 1005.8 |
| 20260904200501 | 65 | 298 | 12.0 | 23.0 | 0.15 | 0.15 | 0.15 | 91 | 1005.8 |
| 20260904195600 | 66 | 273 | 10.0 | 35.0 | 0.15 | 0.15 | 0.15 | 91 | 1005.6 |
| 20260904195502 | 66 | 286 | 9.0 | 35.0 | 0.15 | 0.15 | 0.15 | 91 | 1005.5 |
| 20260904195103 | 66 | 312 | 14.0 | 39.0 | 0.15 | 0.15 | 0.15 | 91 | 1005.6 |
| 20260904194603 | 66 | 290 | 21.0 | 39.0 | 0.15 | 0.15 | 0.15 | 90 | 1005.9 |
| 20260904194058 | 67 | 291 | 17.0 | 40.0 | 0.14 | 0.14 | 0.14 | 90 | 1006.0 |
| 20260904193558 | 67 | 250 | 22.0 | 47.0 | 0.14 | 0.14 | 0.14 | 89 | 1005.8 |
| 20260904193058 | 68 | 299 | 20.0 | 47.0 | 0.13 | 0.13 | 0.13 | 88 | 1005.5 |
| 20260904192556 | 70 | 297 | 17.0 | 39.0 | 0.11 | 0.11 | 0.11 | 85 | 1004.9 |
| 20260904192056 | 71 | 360 | 14.0 | 24.0 | 0.05 | 0.05 | 0.05 | 80 | 1004.3 |
| 20260904191556 | 72 | 307 | 8.0 | 23.0 | 0.02 | 0.02 | 0.02 | 77 | 1003.9 |
| 20260904191056 | 73 | 286 | 9.0 | 35.0 | 0.00 | 0.00 | 0.00 | 76 | 1003.8 |
| 20260904190555 | 74 | 240 | 12.0 | 35.0 | 0.00 | 0.00 | 0.00 | 73 | 1003.7 |
| 20260904190057 | 74 | 178 | 16.0 | 33.0 | 0.00 | 0.00 | 0.00 | 72 | 1003.6 |
| 20260904185553 | 75 | 220 | 15.0 | 33.0 | 0.00 | 0.00 | 0.00 | 70 | 1003.7 |
| 20260904185051 | 75 | 223 | 18.0 | 31.0 | 0.00 | 0.00 | 0.00 | 69 | 1003.6 |
| 20260904184602 | 75 | 211 | 17.0 | 37.0 | 0.00 | 0.00 | 0.00 | 69 | 1003.7 |
| 20260904184048 | 75 | 236 | 14.0 | 31.0 | 0.00 | 0.00 | 0.00 | 69 | 1003.7 |
| 20260904183546 | 75 | 184 | 17.0 | 31.0 | 0.00 | 0.00 | 0.00 | 69 | 1003.6 |
| 20260904183046 | 74 | 227 | 17.0 | 34.0 | 0.00 | 0.00 | 0.00 | 69 | 1003.7 |
| 20260904182548 | 74 | 230 | 17.0 | 34.0 | 0.00 | 0.00 | 0.00 | 69 | 1003.6 |
| 20260904182046 | 74 | 198 | 18.0 | 34.0 | 0.00 | 0.00 | 0.00 | 70 | 1003.7 |
| 20260904181546 | 74 | 227 | 14.0 | 30.0 | 0.00 | 0.00 | 0.00 | 69 | 1003.6 |
| 20260904181045 | 74 | 238 | 16.0 | 36.0 | 0.00 | 0.00 | 0.00 | 69 | 1003.8 |
| 20260904180544 | 74 | 207 | 14.0 | 36.0 | 0.00 | 0.00 | 0.00 | 69 | 1003.8 |
| 20260904180056 | 74 | 217 | 17.0 | 32.0 | 0.00 | 0.00 | 0.00 | 69 | 1004.0 |
| 20260904175541 | 74 | 240 | 14.0 | 32.0 | 0.00 | 0.00 | 0.00 | 69 | 1004.1 |
| 20260904175039 | 74 | 257 | 16.0 | 42.0 | 0.00 | 0.00 | 0.00 | 69 | 1004.1 |
| 20260904174540 | 74 | 186 | 14.0 | 42.0 | 0.00 | 0.00 | 0.00 | 69 | 1004.2 |
| 20260904174038 | 74 | 248 | 16.0 | 32.0 | 0.00 | 0.00 | 0.00 | 69 | 1004.3 |
| 20260904173536 | 74 | 192 | 19.0 | 30.0 | 0.00 | 0.00 | 0.00 | 70 | 1004.5 |
| 20260904173045 | 74 | 257 | 16.0 | 36.0 | 0.00 | 0.00 | 0.00 | 70 | 1004.4 |
| 20260904172635 | 74 | 216 | 17.0 | 36.0 | 0.00 | 0.00 | 0.00 | 70 | 1004.4 |
| 20260904172035 | 74 | 223 | 15.0 | 35.0 | 0.00 | 0.00 | 0.00 | 70 | 1004.4 |
| 20260904171532 | 74 | 224 | 14.0 | 31.0 | 0.00 | 0.00 | 0.00 | 70 | 1004.5 |
| 20260904171032 | 74 | 223 | 15.0 | 31.0 | 0.00 | 0.00 | 0.00 | 70 | 1004.6 |
| 20260904170530 | 74 | 220 | 13.0 | 31.0 | 0.00 | 0.00 | 0.00 | 70 | 1004.6 |
| 20260904170028 | 74 | 216 | 12.0 | 24.0 | 0.00 | 0.00 | 0.00 | 70 | 1004.7 |
| 20260904165527 | 74 | 209 | 14.0 | 24.0 | 0.00 | 0.00 | 0.00 | 70 | 1004.8 |
| 20260904165026 | 74 | 236 | 13.0 | 23.0 | 0.00 | 0.00 | 0.00 | 70 | 1004.9 |
| 20260904164523 | 74 | 190 | 12.0 | 23.0 | 0.00 | 0.00 | 0.00 | 70 | 1005.0 |
| 20260904164022 | 74 | 257 | 11.0 | 21.0 | 0.00 | 0.00 | 0.00 | 69 | 1005.1 |
| 20260904163520 | 74 | 249 | 11.0 | 27.0 | 0.00 | 0.00 | 0.00 | 70 | 1005.3 |
| 20260904163024 | 74 | 261 | 15.0 | 28.0 | 0.00 | 0.00 | 0.00 | 70 | 1005.3 |
| 20260904162522 | 74 | 249 | 13.0 | 26.0 | 0.00 | 0.00 | 0.00 | 70 | 1005.3 |
| 20260904162016 | 74 | 234 | 12.0 | 23.0 | 0.00 | 0.00 | 0.00 | 70 | 1005.5 |
| 20260904161515 | 74 | 245 | 12.0 | 27.0 | 0.00 | 0.00 | 0.00 | 71 | 1005.6 |
| 20260904161016 | 74 | 217 | 14.0 | 34.0 | 0.00 | 0.00 | 0.00 | 71 | 1005.6 |
| 20260904160516 | 74 | 223 | 13.0 | 34.0 | 0.00 | 0.00 | 0.00 | 71 | 1005.5 |
| 20260904160011 | 73 | 258 | 15.0 | 34.0 | 0.00 | 0.00 | 0.00 | 71 | 1005.7 |
| 20260904155511 | 74 | 261 | 15.0 | 34.0 | 0.00 | 0.00 | 0.00 | 71 | 1005.6 |
| 20260904155009 | 74 | 201 | 11.0 | 29.0 | 0.00 | 0.00 | 0.00 | 71 | 1005.7 |
| 20260904154508 | 74 | 221 | 13.0 | 24.0 | 0.00 | 0.00 | 0.00 | 71 | 1005.8 |
| 20260904154006 | 74 | 233 | 15.0 | 25.0 | 0.00 | 0.00 | 0.00 | 71 | 1006.0 |
| 20260904153505 | 73 | 234 | 9.0 | 23.0 | 0.00 | 0.00 | 0.00 | 72 | 1006.1 |
| 20260904153006 | 73 | 254 | 15.0 | 28.0 | 0.00 | 0.00 | 0.00 | 72 | 1006.1 |
| 20260904152505 | 73 | 256 | 15.0 | 28.0 | 0.00 | 0.00 | 0.00 | 72 | 1006.1 |
| 20260904152104 | 73 | 223 | 11.0 | 29.0 | 0.00 | 0.00 | 0.00 | 73 | 1006.2 |
| 20260904151503 | 73 | 192 | 12.0 | 29.0 | 0.00 | 0.00 | 0.00 | 73 | 1006.3 |
| 20260904151007 | 73 | 251 | 12.0 | 24.0 | 0.00 | 0.00 | 0.00 | 73 | 1006.4 |
| 20260904150503 | 73 | 225 | 11.0 | 24.0 | 0.00 | 0.00 | 0.00 | 73 | 1006.3 |
| 20260904150007 | 73 | 218 | 12.0 | 33.0 | 0.00 | 0.00 | 0.00 | 73 | 1006.4 |
| 20260904145503 | 73 | 242 | 12.0 | 33.0 | 0.00 | 0.00 | 0.00 | 73 | 1006.6 |
| 20260904145100 | 73 | 227 | 14.0 | 31.0 | 0.00 | 0.00 | 0.00 | 72 | 1006.7 |
| 20260904144600 | 73 | 217 | 12.0 | 34.0 | 0.00 | 0.00 | 0.00 | 72 | 1006.8 |
| 20260904144101 | 73 | 211 | 13.0 | 34.0 | 0.00 | 0.00 | 0.00 | 72 | 1006.8 |
| 20260904143559 | 72 | 241 | 13.0 | 26.0 | 0.00 | 0.00 | 0.00 | 73 | 1007.0 |
| 20260904143058 | 72 | 217 | 11.0 | 33.0 | 0.00 | 0.00 | 0.00 | 73 | 1007.1 |
| 20260904142557 | 72 | 224 | 15.0 | 32.0 | 0.00 | 0.00 | 0.00 | 74 | 1007.3 |
| 20260904142058 | 72 | 218 | 13.0 | 24.0 | 0.00 | 0.00 | 0.00 | 74 | 1007.4 |
| 20260904141614 | 72 | 234 | 9.0 | 24.0 | 0.00 | 0.00 | 0.00 | 74 | 1007.4 |
| 20260904141055 | 72 | 252 | 11.0 | 22.0 | 0.00 | 0.00 | 0.00 | 74 | 1007.5 |
| 20260904140658 | 72 | 214 | 12.0 | 22.0 | 0.00 | 0.00 | 0.00 | 74 | 1007.5 |
| 20260904140055 | 72 | 267 | 12.0 | 30.0 | 0.00 | 0.00 | 0.00 | 74 | 1007.6 |
| 20260904135556 | 72 | 211 | 12.0 | 29.0 | 0.00 | 0.00 | 0.00 | 74 | 1007.6 |
| 20260904135054 | 71 | 230 | 13.0 | 29.0 | 0.00 | 0.00 | 0.00 | 75 | 1007.6 |